Time;durP1;ratioP1;P1;durP2;ratioP2;P2;SDS_P1;SDS_P2;PMS_P1;PMS_P2;Temp;Humidity;BMP_temperature;BMP_pressure;BME280_temperature;BME280_humidity;BME280_pressure;Samples;Min_cycle;Max_cycle;Signal;HPM_P1;HPM_P2
2022/06/27 00:02:25;;;;;;;10.60;9.23;;;17.50;1.00;;;;;;4958405;28;20046;-86
2022/06/27 00:04:51;;;;;;;11.80;10.48;;;17.40;1.00;;;;;;4943094;28;20034;-86
2022/06/27 00:07:17;;;;;;;11.05;9.95;;;17.40;1.00;;;;;;4943019;28;20051;-87
2022/06/27 00:09:43;;;;;;;10.73;9.63;;;17.50;1.00;;;;;;4955472;28;20050;-87
2022/06/27 00:12:09;;;;;;;11.63;10.25;;;17.40;1.00;;;;;;4971498;28;20391;-87
2022/06/27 00:14:35;;;;;;;12.32;9.70;;;17.40;1.00;;;;;;4937746;28;20053;-87
2022/06/27 00:17:01;;;;;;;9.82;8.75;;;17.40;1.00;;;;;;4941634;28;20506;-86
2022/06/27 00:19:28;;;;;;;10.00;9.00;;;17.30;1.00;;;;;;4943911;28;20070;-87
2022/06/27 00:21:54;;;;;;;10.15;8.80;;;17.30;1.00;;;;;;4944504;28;20402;-87
2022/06/27 00:24:20;;;;;;;11.50;8.88;;;17.40;1.00;;;;;;4942012;28;20459;-86
2022/06/27 00:26:45;;;;;;;11.15;9.32;;;17.30;1.00;;;;;;4950874;28;20464;-86
2022/06/27 00:29:11;;;;;;;11.40;9.73;;;17.40;1.00;;;;;;4959093;28;20558;-86
2022/06/27 00:31:37;;;;;;;10.48;9.38;;;17.40;1.00;;;;;;4943813;28;20513;-86
2022/06/27 00:34:03;;;;;;;10.90;9.90;;;17.30;1.00;;;;;;4958309;28;20038;-86
2022/06/27 00:36:28;;;;;;;11.40;9.77;;;17.30;1.00;;;;;;4959265;28;20483;-86
2022/06/27 00:38:57;;;;;;;11.45;9.55;;;17.30;1.00;;;;;;4935470;28;20066;-86
2022/06/27 00:41:23;;;;;;;11.15;9.98;;;17.30;1.00;;;;;;4960210;28;20114;-87
2022/06/27 00:43:49;;;;;;;12.93;10.80;;;17.20;1.00;;;;;;4957249;28;20121;-86
2022/06/27 00:46:14;;;;;;;11.77;9.82;;;17.30;19.70;;;;;;4958451;28;20710;-87
2022/06/27 00:48:40;;;;;;;13.95;10.93;;;17.20;1.00;;;;;;4941233;28;20596;-87
2022/06/27 00:51:06;;;;;;;13.30;10.15;;;17.30;6.00;;;;;;4940068;28;20049;-86
2022/06/27 00:53:34;;;;;;;12.27;11.07;;;17.20;1.00;;;;;;4944495;28;20077;-88
2022/06/27 00:56:00;;;;;;;11.70;10.50;;;17.30;7.20;;;;;;4946714;28;20046;-87
2022/06/27 00:58:26;;;;;;;13.00;10.88;;;17.30;30.60;;;;;;4945306;28;20895;-87
2022/06/27 01:00:52;;;;;;;10.45;9.45;;;17.20;25.50;;;;;;4939803;28;20416;-87
2022/06/27 01:03:17;;;;;;;10.95;9.55;;;17.20;14.60;;;;;;4945016;28;20380;-87
2022/06/27 01:05:51;;;;;;;12.02;10.52;;;17.20;44.70;;;;;;4947127;28;20197;-86
2022/06/27 01:08:27;;;;;;;11.98;10.77;;;17.10;22.10;;;;;;4946267;28;20465;-87
2022/06/27 01:10:53;;;;;;;14.43;11.32;;;17.10;18.50;;;;;;4962165;28;20471;-86
2022/06/27 01:13:21;;;;;;;13.30;10.80;;;17.10;22.30;;;;;;4944309;28;20206;-87
2022/06/27 01:15:47;;;;;;;13.50;11.32;;;17.10;6.20;;;;;;4958320;28;20140;-85
2022/06/27 01:18:13;;;;;;;13.27;11.57;;;17.10;13.30;;;;;;4959772;28;20035;-87
2022/06/27 01:20:44;;;;;;;14.05;12.55;;;17.10;24.40;;;;;;4961511;28;20074;-86
2022/06/27 01:23:11;;;;;;;11.35;10.25;;;17.00;34.50;;;;;;4944603;28;20046;-87
2022/06/27 01:25:37;;;;;;;13.63;11.63;;;17.00;40.90;;;;;;4956394;28;20039;-86
2022/06/27 01:28:04;;;;;;;14.95;12.57;;;17.00;81.50;;;;;;4940459;28;20319;-86
2022/06/27 01:30:29;;;;;;;14.85;12.27;;;17.00;99.90;;;;;;4945298;28;20113;-87
2022/06/27 01:32:56;;;;;;;12.63;11.23;;;17.00;94.70;;;;;;4943476;28;20494;-87
2022/06/27 01:35:21;;;;;;;13.95;12.07;;;17.00;65.80;;;;;;4941904;28;20062;-86
2022/06/27 01:37:47;;;;;;;14.48;11.35;;;16.90;85.20;;;;;;4953434;28;20038;-87
2022/06/27 01:40:17;;;;;;;15.27;12.38;;;16.90;83.00;;;;;;4944959;28;20059;-86
2022/06/27 01:42:43;;;;;;;13.88;12.52;;;16.90;94.00;;;;;;4943314;28;20117;-88
2022/06/27 01:45:10;;;;;;;14.10;12.50;;;16.90;99.90;;;;;;4957928;28;20054;-87
2022/06/27 01:47:36;;;;;;;14.57;13.07;;;16.90;99.90;;;;;;4943345;28;20039;-87
2022/06/27 01:50:02;;;;;;;17.38;13.38;;;16.90;99.90;;;;;;4959089;28;20042;-86
2022/06/27 01:52:28;;;;;;;14.68;12.68;;;16.90;99.90;;;;;;4943425;28;20031;-87
2022/06/27 01:54:55;;;;;;;14.40;12.90;;;16.90;99.90;;;;;;4954209;28;20194;-87
2022/06/27 01:57:22;;;;;;;12.68;11.32;;;16.90;99.90;;;;;;4959154;28;20490;-87
2022/06/27 01:59:50;;;;;;;14.55;12.35;;;16.80;99.90;;;;;;4955044;28;20167;-87
2022/06/27 02:02:17;;;;;;;15.00;13.25;;;16.90;99.90;;;;;;4948865;28;20034;-86
2022/06/27 02:04:44;;;;;;;12.85;11.30;;;16.90;99.90;;;;;;4944739;28;20047;-87
2022/06/27 02:07:11;;;;;;;15.70;12.55;;;16.90;92.50;;;;;;4943952;28;20051;-87
2022/06/27 02:09:37;;;;;;;14.93;12.90;;;16.90;99.90;;;;;;4937685;28;20550;-87
2022/06/27 02:12:18;;;;;;;14.35;12.48;;;16.90;99.90;;;;;;4943411;28;20050;-87
2022/06/27 02:14:48;;;;;;;15.40;13.80;;;17.00;99.90;;;;;;4941880;28;21033;-87
2022/06/27 02:17:16;;;;;;;16.95;14.80;;;17.00;99.90;;;;;;4943786;28;20042;-87
2022/06/27 02:19:42;;;;;;;19.23;14.02;;;16.90;99.90;;;;;;4959400;28;20477;-88
2022/06/27 02:22:10;;;;;;;14.73;13.18;;;16.90;99.90;;;;;;4942948;28;20130;-87
2022/06/27 02:24:36;;;;;;;14.27;12.80;;;16.80;99.90;;;;;;4940749;28;20038;-87
2022/06/27 02:27:02;;;;;;;15.63;12.90;;;16.90;99.90;;;;;;4945831;28;20426;-87
2022/06/27 02:29:28;;;;;;;15.25;13.35;;;16.90;99.90;;;;;;4945222;28;20042;-88
2022/06/27 02:31:53;;;;;;;16.83;13.88;;;16.90;99.90;;;;;;4938827;28;20054;-88
2022/06/27 02:34:19;;;;;;;15.13;13.52;;;16.90;99.90;;;;;;4942631;28;20151;-88
2022/06/27 02:36:49;;;;;;;15.20;13.60;;;16.90;99.90;;;;;;4943752;28;20471;-87
2022/06/27 02:39:23;;;;;;;15.73;13.98;;;16.90;99.90;;;;;;4960132;28;20439;-87
2022/06/27 02:41:51;;;;;;;;;;;16.90;99.90;;;;;;4942668;28;20034;-87
2022/06/27 02:44:19;;;;;;;16.50;14.00;;;16.90;99.90;;;;;;4940356;28;19969;-88
2022/06/27 02:46:46;;;;;;;16.90;14.88;;;16.90;99.90;;;;;;4952133;28;20110;-87
2022/06/27 02:49:12;;;;;;;18.08;15.18;;;16.90;99.90;;;;;;4941763;28;20101;-88
2022/06/27 02:52:03;;;;;;;17.83;15.90;;;17.00;99.90;;;;;;4934169;28;20051;-87
2022/06/27 02:54:41;;;;;;;20.70;15.98;;;17.00;99.90;;;;;;4935952;28;20458;-87
2022/06/27 02:57:30;;;;;;;21.00;16.90;;;16.90;99.90;;;;;;4942454;28;20047;-88
2022/06/27 02:59:57;;;;;;;18.75;16.75;;;16.90;99.90;;;;;;4940403;28;20121;-87
2022/06/27 03:02:25;;;;;;;21.90;16.38;;;16.90;99.90;;;;;;4956878;28;20030;-87
2022/06/27 03:04:52;;;;;;;20.63;17.33;;;16.90;99.90;;;;;;4939405;29;20042;-87
2022/06/27 03:07:18;;;;;;;18.17;16.25;;;16.90;99.90;;;;;;4957999;28;20316;-88
2022/06/27 03:09:43;;;;;;;18.67;16.33;;;17.00;99.90;;;;;;4944466;28;20266;-87
2022/06/27 03:12:09;;;;;;;21.10;16.35;;;17.00;99.90;;;;;;4939905;28;20380;-87
2022/06/27 03:14:34;;;;;;;19.73;17.20;;;17.00;99.90;;;;;;4941358;28;20073;-87
2022/06/27 03:17:00;;;;;;;18.67;16.52;;;17.00;99.90;;;;;;4940686;28;20359;-86
2022/06/27 03:19:26;;;;;;;20.27;17.15;;;17.00;99.90;;;;;;4941367;28;20034;-87
2022/06/27 03:21:54;;;;;;;20.77;17.95;;;17.00;99.90;;;;;;4942386;28;20448;-88
2022/06/27 03:24:20;;;;;;;23.52;19.55;;;16.90;99.90;;;;;;4950632;28;20049;-88
2022/06/27 03:26:46;;;;;;;20.27;18.02;;;17.00;99.90;;;;;;4940493;28;20039;-87
2022/06/27 03:29:12;;;;;;;21.50;18.35;;;16.90;99.90;;;;;;4940642;28;20054;-87
2022/06/27 03:31:37;;;;;;;18.63;16.50;;;16.90;99.90;;;;;;4942340;28;20042;-88
2022/06/27 03:34:03;;;;;;;22.83;18.10;;;16.90;99.90;;;;;;4938089;28;20053;-88
2022/06/27 03:36:29;;;;;;;21.83;17.33;;;16.90;99.90;;;;;;4944531;28;20034;-87
2022/06/27 03:38:57;;;;;;;20.98;17.02;;;16.90;99.90;;;;;;4959050;28;20470;-88
2022/06/27 03:41:23;;;;;;;20.48;16.50;;;17.00;99.90;;;;;;4940336;28;20038;-87
2022/06/27 03:43:50;;;;;;;19.92;16.23;;;17.00;99.90;;;;;;4933998;29;20486;-87
2022/06/27 03:46:15;;;;;;;21.42;17.90;;;16.90;99.90;;;;;;4943192;28;20769;-87
2022/06/27 03:51:25;;;;;;;17.67;15.85;;;17.00;99.90;;;;;;4951676;28;20046;-88
2022/06/27 03:53:52;;;;;;;19.23;17.20;;;17.00;99.90;;;;;;4952579;28;20043;-87
2022/06/27 03:56:20;;;;;;;22.20;17.73;;;17.00;99.90;;;;;;4935140;28;20051;-87
2022/06/27 03:58:46;;;;;;;19.60;16.83;;;17.00;99.90;;;;;;4954068;28;20043;-87
2022/06/27 04:01:12;;;;;;;19.20;17.17;;;16.90;99.90;;;;;;4939195;28;20046;-87
2022/06/27 04:03:37;;;;;;;19.85;16.80;;;17.00;99.90;;;;;;4941173;28;20145;-87
2022/06/27 04:06:03;;;;;;;19.20;16.17;;;17.00;99.90;;;;;;4939544;28;20590;-87
2022/06/27 04:08:29;;;;;;;23.25;16.90;;;17.00;99.90;;;;;;4954629;28;20046;-88
2022/06/27 04:10:57;;;;;;;20.20;17.25;;;17.00;99.90;;;;;;4936068;28;20141;-87
2022/06/27 04:13:23;;;;;;;18.73;15.30;;;17.00;99.90;;;;;;4958788;28;20046;-87
2022/06/27 04:15:48;;;;;;;15.57;13.98;;;16.90;99.90;;;;;;4956398;28;20042;-87
2022/06/27 04:18:14;;;;;;;16.40;14.35;;;17.00;99.90;;;;;;4952556;28;20342;-87
2022/06/27 04:20:42;;;;;;;16.42;13.48;;;16.90;99.90;;;;;;4933657;28;20526;-87
2022/06/27 04:23:08;;;;;;;18.23;14.13;;;17.00;99.90;;;;;;4942218;28;20499;-88
2022/06/27 04:25:33;;;;;;;14.27;12.77;;;16.90;99.90;;;;;;4939150;28;20041;-87
2022/06/27 04:27:59;;;;;;;13.63;12.23;;;16.80;99.90;;;;;;4940434;28;20039;-88
2022/06/27 04:30:25;;;;;;;14.55;12.73;;;16.80;99.90;;;;;;4943622;28;20136;-87
2022/06/27 04:32:51;;;;;;;13.90;12.48;;;16.90;99.90;;;;;;4958186;28;20054;-87
2022/06/27 04:35:18;;;;;;;15.75;13.27;;;16.80;99.90;;;;;;4959336;28;20064;-86
2022/06/27 04:37:44;;;;;;;15.18;12.50;;;16.90;99.90;;;;;;4940941;28;20042;-87
2022/06/27 04:40:11;;;;;;;12.93;11.57;;;16.80;99.90;;;;;;4943167;28;20399;-87
2022/06/27 04:42:37;;;;;;;11.38;10.27;;;16.90;99.90;;;;;;4941722;28;20046;-87
2022/06/27 04:45:11;;;;;;;11.32;10.15;;;16.80;99.90;;;;;;4942966;28;20405;-88
2022/06/27 04:47:46;;;;;;;12.93;10.57;;;16.90;99.90;;;;;;4938697;28;20035;-87
2022/06/27 04:50:15;;;;;;;10.52;9.43;;;16.90;99.90;;;;;;4958211;28;20046;-88
2022/06/27 04:52:41;;;;;;;9.98;8.98;;;16.80;99.90;;;;;;4959015;28;20035;-87
2022/06/27 04:55:08;;;;;;;10.10;8.88;;;16.80;99.90;;;;;;4936109;28;20761;-87
2022/06/27 04:57:39;;;;;;;9.55;8.63;;;16.80;99.90;;;;;;4957868;28;20411;-88
2022/06/27 05:00:08;;;;;;;9.73;8.75;;;16.90;99.90;;;;;;4956965;28;20310;-87
2022/06/27 05:02:35;;;;;;;8.98;8.07;;;16.90;99.90;;;;;;4941442;28;20499;-86
2022/06/27 05:05:01;;;;;;;7.63;6.93;;;17.00;99.90;;;;;;4959103;28;20139;-85
2022/06/27 05:07:30;;;;;;;6.15;5.55;;;17.10;99.90;;;;;;4941522;28;20097;-87
2022/06/27 05:09:57;;;;;;;7.90;6.57;;;17.10;99.90;;;;;;4943120;28;20051;-87
2022/06/27 05:12:24;;;;;;;6.78;5.55;;;17.10;99.90;;;;;;4948943;28;20058;-87
2022/06/27 05:14:50;;;;;;;5.93;5.00;;;17.00;99.90;;;;;;4956367;28;20049;-87
2022/06/27 05:17:16;;;;;;;5.32;4.38;;;17.00;90.00;;;;;;4942304;28;20070;-87
2022/06/27 05:19:45;;;;;;;5.32;4.25;;;16.90;94.20;;;;;;4943162;28;20352;-87
2022/06/27 05:22:11;;;;;;;5.30;4.40;;;16.90;99.90;;;;;;4937869;28;20368;-87
2022/06/27 05:24:37;;;;;;;4.65;3.92;;;16.90;99.90;;;;;;4940751;28;20037;-87
2022/06/27 05:27:03;;;;;;;4.82;3.80;;;16.80;84.30;;;;;;4957787;28;20039;-87
2022/06/27 05:29:29;;;;;;;4.85;4.20;;;16.80;86.80;;;;;;4952397;28;20102;-87
2022/06/27 05:31:55;;;;;;;3.70;3.40;;;16.90;87.10;;;;;;4952613;28;20050;-87
2022/06/27 05:34:21;;;;;;;4.65;3.85;;;17.00;76.80;;;;;;4942414;28;20042;-87
2022/06/27 05:36:49;;;;;;;4.07;3.50;;;16.90;57.30;;;;;;4943314;28;20126;-86
2022/06/27 05:39:15;;;;;;;4.40;3.60;;;16.90;62.60;;;;;;4958220;28;20369;-87
2022/06/27 05:41:41;;;;;;;3.90;3.50;;;16.90;32.10;;;;;;4945636;28;20057;-87
2022/06/27 05:44:07;;;;;;;4.72;3.70;;;17.00;3.60;;;;;;4944733;28;20082;-87
2022/06/27 05:46:33;;;;;;;5.55;3.78;;;17.10;1.00;;;;;;4944782;28;20039;-87
2022/06/27 05:49:01;;;;;;;5.97;3.83;;;17.20;1.00;;;;;;4945545;28;20410;-87
2022/06/27 05:51:28;;;;;;;4.20;3.53;;;17.30;1.00;;;;;;4960917;28;20046;-86
2022/06/27 05:53:56;;;;;;;4.32;3.72;;;17.40;1.30;;;;;;4944400;28;20495;-86
2022/06/27 05:56:24;;;;;;;4.25;3.50;;;17.60;1.00;;;;;;4945381;28;20410;-86
2022/06/27 05:58:50;;;;;;;3.83;3.42;;;17.80;1.00;;;;;;4956493;28;20507;-86
2022/06/27 06:01:17;;;;;;;4.10;3.70;;;17.50;1.00;;;;;;4958820;28;20155;-87
2022/06/27 06:03:46;;;;;;;4.75;3.20;;;17.60;1.00;;;;;;4942386;28;20031;-86
2022/06/27 06:06:11;;;;;;;4.18;3.20;;;17.60;1.00;;;;;;4950904;28;20039;-87
2022/06/27 06:08:38;;;;;;;3.92;3.53;;;17.70;1.00;;;;;;4959870;28;20379;-87
2022/06/27 06:11:03;;;;;;;3.22;2.92;;;17.50;1.00;;;;;;4958370;28;20039;-87
2022/06/27 06:13:30;;;;;;;3.45;2.97;;;17.70;1.00;;;;;;4942908;28;20094;-87
2022/06/27 06:15:57;;;;;;;3.05;2.85;;;17.70;1.00;;;;;;4947308;28;20073;-86
2022/06/27 06:18:23;;;;;;;4.78;3.35;;;17.60;1.00;;;;;;4943360;28;20070;-87
2022/06/27 06:20:49;;;;;;;4.28;3.22;;;17.50;1.00;;;;;;4941738;28;20172;-87
2022/06/27 06:23:15;;;;;;;4.05;3.60;;;17.40;1.00;;;;;;4958473;28;20562;-88
2022/06/27 06:25:41;;;;;;;4.05;3.10;;;17.50;1.00;;;;;;4945607;28;20038;-87
2022/06/27 06:28:16;;;;;;;3.13;2.83;;;17.60;1.00;;;;;;4947793;28;20463;-87
2022/06/27 06:30:41;;;;;;;3.83;3.28;;;17.50;1.00;;;;;;4943045;28;20126;-87
2022/06/27 06:33:07;;;;;;;4.03;3.45;;;17.50;1.00;;;;;;4947067;28;20126;-87
2022/06/27 06:35:34;;;;;;;4.20;3.20;;;17.50;1.00;;;;;;4961494;28;20093;-87
2022/06/27 06:38:02;;;;;;;6.25;3.63;;;17.60;1.00;;;;;;4944974;28;20122;-87
2022/06/27 06:40:29;;;;;;;4.05;3.22;;;17.60;1.00;;;;;;4941289;28;20039;-88
2022/06/27 06:42:55;;;;;;;6.53;3.65;;;17.60;1.00;;;;;;4944291;28;20039;-87
2022/06/27 06:45:21;;;;;;;4.03;3.58;;;17.70;1.00;;;;;;4960632;28;20100;-87
2022/06/27 06:47:49;;;;;;;3.95;3.00;;;17.80;1.00;;;;;;4942745;28;20121;-86
2022/06/27 06:50:18;;;;;;;5.05;2.78;;;17.70;1.00;;;;;;4943847;28;20042;-87
2022/06/27 06:52:51;;;;;;;3.58;3.20;;;17.70;1.00;;;;;;4960607;28;20046;-86
2022/06/27 06:55:19;;;;;;;4.00;3.33;;;17.70;1.00;;;;;;4944505;28;20061;-87
2022/06/27 06:57:45;;;;;;;5.32;3.30;;;17.80;1.00;;;;;;4959783;28;20093;-87
2022/06/27 07:00:11;;;;;;;4.97;3.22;;;17.70;1.00;;;;;;4963262;28;20707;-87
2022/06/27 07:02:37;;;;;;;4.35;3.28;;;17.70;1.00;;;;;;4947683;28;20039;-85
2022/06/27 07:05:04;;;;;;;3.67;3.28;;;17.70;1.00;;;;;;4962423;28;20031;-87
2022/06/27 07:07:33;;;;;;;3.58;3.22;;;17.60;1.00;;;;;;4944965;28;20453;-87
2022/06/27 07:09:59;;;;;;;3.65;3.30;;;17.60;1.00;;;;;;4946626;28;20495;-86
2022/06/27 07:12:26;;;;;;;4.13;3.22;;;17.60;1.00;;;;;;4944683;28;20042;-86
2022/06/27 07:14:54;;;;;;;4.10;3.10;;;17.70;1.00;;;;;;4961674;28;20050;-87
2022/06/27 07:17:24;;;;;;;4.80;3.25;;;17.70;1.00;;;;;;4959712;28;20463;-88
2022/06/27 07:19:52;;;;;;;3.92;3.15;;;17.80;1.00;;;;;;4963277;28;20047;-88
2022/06/27 07:22:19;;;;;;;3.42;3.13;;;17.80;1.00;;;;;;4958723;28;20053;-87
2022/06/27 07:24:49;;;;;;;4.78;3.20;;;17.70;1.00;;;;;;4941045;28;20043;-87
2022/06/27 07:27:16;;;;;;;4.22;3.40;;;17.70;1.00;;;;;;4958769;28;20042;-87
2022/06/27 07:29:42;;;;;;;4.20;3.38;;;17.50;1.00;;;;;;4942572;28;20043;-88
2022/06/27 07:32:08;;;;;;;3.67;3.30;;;17.50;1.00;;;;;;4964918;28;20043;-86
2022/06/27 07:34:50;;;;;;;4.10;3.47;;;17.60;1.00;;;;;;4950764;28;20118;-86
2022/06/27 07:37:16;;;;;;;4.30;3.90;;;17.70;1.00;;;;;;4950884;28;20039;-86
2022/06/27 07:39:43;;;;;;;3.95;3.30;;;17.70;1.00;;;;;;4946935;28;20088;-87
2022/06/27 07:42:09;;;;;;;4.25;3.70;;;17.70;4.90;;;;;;4964913;28;20050;-86
2022/06/27 07:44:35;;;;;;;5.45;3.95;;;17.60;38.00;;;;;;4966760;28;20904;-87
2022/06/27 07:47:03;;;;;;;5.05;3.75;;;17.60;28.80;;;;;;4942967;28;20137;-86
2022/06/27 07:49:30;;;;;;;4.22;3.83;;;17.70;11.70;;;;;;4944917;28;20046;-87
2022/06/27 07:51:57;;;;;;;5.47;4.05;;;17.70;1.00;;;;;;4940982;28;20055;-86
2022/06/27 07:54:24;;;;;;;5.38;4.00;;;17.70;1.00;;;;;;4940309;29;20066;-87
2022/06/27 07:56:51;;;;;;;5.00;4.05;;;17.70;1.00;;;;;;4936927;28;20047;-87
2022/06/27 07:59:17;;;;;;;4.57;4.18;;;17.70;1.00;;;;;;4957123;28;20098;-87
2022/06/27 08:01:44;;;;;;;4.43;4.03;;;17.70;1.00;;;;;;4943409;28;20046;-86
2022/06/27 08:04:11;;;;;;;4.90;4.15;;;17.70;1.00;;;;;;4945690;28;20491;-87
2022/06/27 08:06:37;;;;;;;5.60;4.28;;;17.90;1.00;;;;;;4958939;28;20042;-86
2022/06/27 08:09:07;;;;;;;5.13;4.30;;;18.10;1.00;;;;;;4961170;28;20053;-87
2022/06/27 08:11:40;;;;;;;4.85;4.40;;;18.20;1.00;;;;;;4945049;28;20039;-87
2022/06/27 08:14:09;;;;;;;4.43;4.03;;;18.20;1.00;;;;;;4941779;28;20051;-87
2022/06/27 08:16:39;;;;;;;4.82;4.30;;;18.30;1.00;;;;;;4943062;28;20523;-87
2022/06/27 08:19:05;;;;;;;5.80;4.20;;;18.20;1.00;;;;;;4959964;28;20503;-87
2022/06/27 08:21:31;;;;;;;6.53;4.47;;;18.30;1.00;;;;;;4932534;29;20031;-87
2022/06/27 08:24:02;;;;;;;5.40;4.38;;;18.40;1.00;;;;;;4952292;28;20093;-87
2022/06/27 08:26:30;;;;;;;4.53;4.10;;;18.50;1.00;;;;;;4957184;28;20046;-87
2022/06/27 08:28:58;;;;;;;4.82;4.32;;;18.80;1.00;;;;;;4960947;28;20057;-86
2022/06/27 08:31:25;;;;;;;4.35;3.83;;;18.50;99.90;;;;;;4947321;28;20046;-87
2022/06/27 08:33:55;;;;;;;5.68;4.30;;;18.50;99.90;;;;;;4946853;28;20126;-87
2022/06/27 08:36:23;;;;;;;4.85;4.07;;;18.80;99.90;;;;;;4946356;28;20491;-87
2022/06/27 08:38:49;;;;;;;5.07;4.10;;;19.00;99.90;;;;;;4942172;28;20045;-87
2022/06/27 08:41:16;;;;;;;4.43;3.97;;;18.90;99.90;;;;;;4954244;28;20042;-87
2022/06/27 08:43:47;;;;;;;6.90;4.50;;;18.70;99.90;;;;;;4958265;28;20035;-87
2022/06/27 08:46:15;;;;;;;6.13;3.90;;;18.80;99.90;;;;;;4944802;28;20462;-86
2022/06/27 08:48:42;;;;;;;7.05;4.28;;;19.00;99.90;;;;;;4940487;28;20447;-87
2022/06/27 08:51:09;;;;;;;5.63;4.00;;;18.90;99.90;;;;;;4941752;28;20045;-86
2022/06/27 08:53:37;;;;;;;6.00;4.07;;;18.80;99.90;;;;;;4956947;28;20367;-87
2022/06/27 08:56:08;;;;;;;6.05;4.13;;;18.70;99.90;;;;;;4956334;28;20534;-87
2022/06/27 08:58:35;;;;;;;5.20;3.85;;;18.80;99.90;;;;;;4958041;28;20628;-87
2022/06/27 09:01:05;;;;;;;7.18;4.18;;;18.90;99.90;;;;;;4954931;28;20310;-87
2022/06/27 09:03:32;;;;;;;6.03;3.92;;;18.90;99.90;;;;;;4942762;28;20074;-88
2022/06/27 09:06:07;;;;;;;6.75;4.30;;;19.10;99.90;;;;;;4960442;28;20046;-87
2022/06/27 09:08:36;;;;;;;5.32;4.20;;;19.20;99.90;;;;;;4945110;28;20070;-87
2022/06/27 09:11:03;;;;;;;6.30;4.30;;;19.40;99.90;;;;;;4944204;28;20146;-87
2022/06/27 09:13:30;;;;;;;8.63;4.18;;;19.70;99.90;;;;;;4945169;28;20030;-86
2022/06/27 09:16:04;;;;;;;5.57;4.18;;;19.70;99.90;;;;;;4938724;28;20041;-87
2022/06/27 09:18:36;;;;;;;5.35;4.05;;;19.90;99.90;;;;;;4957923;28;20035;-86
2022/06/27 09:21:09;;;;;;;5.80;4.10;;;20.00;99.90;;;;;;4963868;28;20511;-87
2022/06/27 09:23:58;;;;;;;6.68;4.22;;;20.20;99.90;;;;;;4957536;28;20039;-87
2022/06/27 09:26:31;;;;;;;4.97;3.95;;;20.00;99.90;;;;;;4951616;28;20046;-86
2022/06/27 09:29:06;;;;;;;4.75;4.20;;;19.80;99.90;;;;;;4965685;28;20402;-87
2022/06/27 09:31:42;;;;;;;5.63;4.10;;;19.70;99.90;;;;;;4948335;28;20053;-87
2022/06/27 09:34:09;;;;;;;4.93;3.97;;;19.70;99.90;;;;;;4947963;28;20538;-86
2022/06/27 09:36:39;;;;;;;5.63;3.80;;;19.40;99.90;;;;;;4949238;28;20035;-87
2022/06/27 09:39:28;;;;;;;4.10;3.65;;;19.40;99.90;;;;;;4964205;28;20042;-87
2022/06/27 09:42:04;;;;;;;5.05;3.70;;;19.30;99.90;;;;;;4963691;28;20416;-87
2022/06/27 09:44:48;;;;;;;4.22;3.78;;;19.30;99.90;;;;;;4949676;28;20039;-87
2022/06/27 09:47:20;;;;;;;4.63;3.75;;;19.40;99.90;;;;;;4980143;28;20050;-86
2022/06/27 09:49:51;;;;;;;5.20;4.20;;;19.30;99.90;;;;;;4944810;28;20118;-86
2022/06/27 09:52:22;;;;;;;5.38;3.70;;;19.40;99.90;;;;;;4941947;28;20486;-86
2022/06/27 09:54:49;;;;;;;6.45;4.10;;;19.50;99.90;;;;;;4979589;28;20126;-87
2022/06/27 09:57:16;;;;;;;4.63;4.13;;;19.50;99.90;;;;;;4948810;28;20122;-87
2022/06/27 09:59:49;;;;;;;4.32;3.60;;;19.50;99.90;;;;;;4949277;28;20158;-86
2022/06/27 10:02:16;;;;;;;4.40;3.60;;;19.60;99.90;;;;;;4967095;28;20355;-87
2022/06/27 10:04:43;;;;;;;3.78;3.20;;;19.70;99.90;;;;;;4951364;28;20141;-87
2022/06/27 10:07:11;;;;;;;4.13;3.40;;;19.70;99.90;;;;;;4945975;28;20043;-87
2022/06/27 10:09:38;;;;;;;4.05;3.38;;;19.60;99.90;;;;;;4965113;28;20070;-87
2022/06/27 10:12:35;;;;;;;4.75;3.30;;;19.60;99.90;;;;;;4950879;28;20541;-87
2022/06/27 10:15:10;;;;;;;3.97;3.30;;;19.60;99.90;;;;;;4963574;28;20039;-86
2022/06/27 10:17:37;;;;;;;;;;;19.40;99.90;;;;;;4944194;28;20127;-87
2022/06/27 10:20:20;;;;;;;4.70;3.53;;;19.80;99.90;;;;;;4966313;28;19921;-87
2022/06/27 10:23:26;;;;;;;4.15;3.58;;;20.00;99.90;;;;;;4958571;28;20026;-87
2022/06/27 10:25:54;;;;;;;4.03;3.58;;;20.10;99.90;;;;;;4961579;28;20130;-86
2022/06/27 10:28:21;;;;;;;4.85;3.90;;;20.00;99.90;;;;;;4951143;28;20046;-87
2022/06/27 10:30:54;;;;;;;4.13;3.72;;;20.30;99.90;;;;;;4949495;28;20074;-87
2022/06/27 10:33:25;;;;;;;4.68;3.92;;;20.10;99.90;;;;;;4951222;28;20211;-86
2022/06/27 10:36:09;;;;;;;4.72;3.47;;;20.00;99.90;;;;;;4947871;28;20074;-86
2022/06/27 10:38:45;;;;;;;3.78;3.38;;;20.30;99.90;;;;;;4946743;28;20573;-86
2022/06/27 10:41:30;;;;;;;3.80;3.47;;;20.50;99.90;;;;;;4946018;28;20035;-87
2022/06/27 10:43:59;;;;;;;5.45;3.72;;;20.60;99.90;;;;;;4949565;28;20038;-86
2022/06/27 10:46:24;;;;;;;3.53;3.20;;;20.50;99.90;;;;;;4961123;28;20050;-86
2022/06/27 10:49:17;;;;;;;3.83;3.10;;;20.50;99.90;;;;;;4966641;28;20047;-87
2022/06/27 10:51:46;;;;;;;3.00;2.80;;;20.50;99.90;;;;;;4940964;28;20055;-86
2022/06/27 10:54:12;;;;;;;3.00;2.70;;;20.40;99.90;;;;;;4951974;28;20248;-86
2022/06/27 10:56:41;;;;;;;3.90;3.05;;;20.70;99.90;;;;;;4947624;28;20034;-86
2022/06/27 10:59:36;;;;;;;5.07;3.83;;;20.70;99.90;;;;;;4963474;28;20459;-87
2022/06/27 11:02:09;;;;;;;3.65;3.35;;;20.90;99.90;;;;;;4965414;28;20043;-87
2022/06/27 11:04:36;;;;;;;3.55;3.25;;;21.30;99.90;;;;;;4966205;28;20057;-87
2022/06/27 11:07:05;;;;;;;4.25;3.53;;;21.30;99.90;;;;;;4947221;28;20113;-87
2022/06/27 11:09:34;;;;;;;4.00;3.60;;;21.10;99.90;;;;;;4963398;28;20046;-87
2022/06/27 11:12:00;;;;;;;4.20;3.78;;;21.00;99.90;;;;;;4948307;28;20331;-86
2022/06/27 11:14:26;;;;;;;5.13;3.72;;;21.20;99.90;;;;;;4947223;28;20058;-86
2022/06/27 11:20:26;;;;;;;4.75;3.70;;;20.90;99.90;;;;;;4964432;28;20082;-86
2022/06/27 11:22:59;;;;;;;4.18;3.67;;;21.10;99.90;;;;;;4949377;28;20088;-86
2022/06/27 11:25:27;;;;;;;5.07;3.80;;;20.90;99.90;;;;;;4939453;28;20123;-86
2022/06/27 11:27:55;;;;;;;5.38;3.53;;;21.00;99.90;;;;;;4948048;28;20047;-87
2022/06/27 11:33:18;;;;;;;3.70;3.30;;;21.10;99.90;;;;;;4959504;28;20046;-86
2022/06/27 11:35:45;;;;;;;3.65;3.35;;;21.00;99.90;;;;;;4945014;28;20050;-87
2022/06/27 11:38:11;;;;;;;4.10;3.47;;;20.90;99.90;;;;;;4959737;28;20191;-86
2022/06/27 11:40:38;;;;;;;4.38;3.97;;;20.70;99.90;;;;;;4945020;28;20042;-86
2022/06/27 11:43:03;;;;;;;4.03;3.40;;;20.70;99.90;;;;;;4945014;28;20112;-86
2022/06/27 11:45:40;;;;;;;4.32;3.20;;;20.70;99.90;;;;;;4946412;28;20034;-87
2022/06/27 11:48:12;;;;;;;3.40;3.10;;;20.70;99.90;;;;;;4943296;28;20484;-87
2022/06/27 11:50:38;;;;;;;6.55;4.22;;;20.70;99.90;;;;;;4955118;28;20586;-87
2022/06/27 11:53:03;;;;;;;4.40;4.00;;;20.60;99.90;;;;;;4956226;28;20162;-87
2022/06/27 11:55:31;;;;;;;4.85;3.80;;;20.70;99.90;;;;;;4942391;28;20055;-86
2022/06/27 11:57:58;;;;;;;6.20;4.10;;;20.90;99.90;;;;;;4944710;28;20060;-87
2022/06/27 12:00:31;;;;;;;5.38;3.85;;;20.90;99.90;;;;;;4944243;28;20710;-86
2022/06/27 12:03:11;;;;;;;4.60;4.07;;;20.90;99.90;;;;;;4943424;28;20035;-86
2022/06/27 12:05:40;;;;;;;5.00;3.88;;;21.00;99.90;;;;;;4939111;28;20182;-87
2022/06/27 12:08:09;;;;;;;4.43;4.03;;;20.70;99.90;;;;;;4943649;28;20054;-86
2022/06/27 12:13:46;;;;;;;4.78;4.13;;;20.60;99.90;;;;;;4961040;28;20042;-87
2022/06/27 12:16:12;;;;;;;4.22;3.67;;;20.60;99.90;;;;;;4940750;28;20069;-86
2022/06/27 12:18:51;;;;;;;4.00;3.50;;;20.60;99.90;;;;;;4945564;28;20035;-86
2022/06/27 12:21:17;;;;;;;4.05;3.65;;;20.70;99.90;;;;;;4963509;28;20031;-86
2022/06/27 12:23:44;;;;;;;4.25;3.85;;;20.70;99.90;;;;;;4947133;28;20438;-87
2022/06/27 12:26:10;;;;;;;4.85;3.80;;;20.50;99.90;;;;;;4955837;28;20027;-86
2022/06/27 12:28:36;;;;;;;4.97;3.88;;;20.70;99.90;;;;;;4943731;28;20042;-85
2022/06/27 12:31:01;;;;;;;4.65;3.70;;;20.80;99.90;;;;;;4943831;28;20038;-85
2022/06/27 12:33:27;;;;;;;4.60;3.63;;;21.00;99.90;;;;;;4960947;28;20518;-85
2022/06/27 12:35:56;;;;;;;4.38;3.47;;;21.20;99.90;;;;;;4941402;28;20034;-86
2022/06/27 12:38:22;;;;;;;4.53;3.67;;;21.00;87.80;;;;;;4942706;28;20089;-85
2022/06/27 12:40:48;;;;;;;4.45;3.40;;;20.90;99.90;;;;;;4942822;28;20034;-85
2022/06/27 12:43:14;;;;;;;3.42;3.13;;;20.70;99.90;;;;;;4943273;28;20074;-86
2022/06/27 12:45:40;;;;;;;3.33;2.83;;;21.10;99.90;;;;;;4943743;28;20464;-86
2022/06/27 12:48:08;;;;;;;2.67;2.47;;;21.20;90.70;;;;;;4957638;28;20399;-86
2022/06/27 12:50:35;;;;;;;4.85;2.50;;;21.10;20.40;;;;;;4945644;28;20568;-86
2022/06/27 12:53:01;;;;;;;3.55;2.35;;;21.20;8.20;;;;;;4976830;28;20122;-86
2022/06/27 12:55:30;;;;;;;2.70;2.30;;;21.10;41.90;;;;;;4945388;28;20058;-85
2022/06/27 12:57:58;;;;;;;2.90;2.60;;;21.00;43.10;;;;;;4981599;28;20038;-86
2022/06/27 13:00:24;;;;;;;2.60;2.40;;;21.00;48.80;;;;;;4948411;28;20035;-86
2022/06/27 13:02:50;;;;;;;2.30;2.10;;;20.80;99.90;;;;;;4965729;28;20387;-85